sensor_id;sensor_type;location;lat;lon;timestamp;P1;durP1;ratioP1;P2;durP2;ratioP2
12770;SDS011;6449;47.666;9.160;2023-05-10T00:00:36;2.15;;;0.70;;
12770;SDS011;6449;47.666;9.160;2023-05-10T00:05:29;1.05;;;0.95;;
12770;SDS011;6449;47.666;9.160;2023-05-10T00:10:24;0.80;;;0.80;;
12770;SDS011;6449;47.666;9.160;2023-05-10T00:15:17;2.03;;;0.60;;
12770;SDS011;6449;47.666;9.160;2023-05-10T00:20:11;0.73;;;0.47;;
12770;SDS011;6449;47.666;9.160;2023-05-10T00:25:05;2.53;;;0.50;;
12770;SDS011;6449;47.666;9.160;2023-05-10T00:30:02;0.60;;;0.30;;
12770;SDS011;6449;47.666;9.160;2023-05-10T00:34:56;1.10;;;0.40;;
12770;SDS011;6449;47.666;9.160;2023-05-10T00:39:50;0.67;;;0.30;;
12770;SDS011;6449;47.666;9.160;2023-05-10T00:44:43;0.57;;;0.40;;
12770;SDS011;6449;47.666;9.160;2023-05-10T00:49:39;0.40;;;0.40;;
12770;SDS011;6449;47.666;9.160;2023-05-10T00:54:33;2.13;;;0.60;;
12770;SDS011;6449;47.666;9.160;2023-05-10T00:59:27;1.43;;;0.47;;
12770;SDS011;6449;47.666;9.160;2023-05-10T01:04:21;0.40;;;0.40;;
12770;SDS011;6449;47.666;9.160;2023-05-10T01:09:18;2.07;;;0.80;;
12770;SDS011;6449;47.666;9.160;2023-05-10T01:14:12;2.83;;;0.70;;
12770;SDS011;6449;47.666;9.160;2023-05-10T01:19:10;0.40;;;0.40;;
12770;SDS011;6449;47.666;9.160;2023-05-10T01:24:21;0.67;;;0.50;;
12770;SDS011;6449;47.666;9.160;2023-05-10T01:30:08;2.17;;;0.50;;
12770;SDS011;6449;47.666;9.160;2023-05-10T01:35:30;2.13;;;0.70;;
12770;SDS011;6449;47.666;9.160;2023-05-10T01:40:32;0.47;;;0.40;;
12770;SDS011;6449;47.666;9.160;2023-05-10T01:45:37;1.30;;;0.73;;
12770;SDS011;6449;47.666;9.160;2023-05-10T01:50:41;1.33;;;0.63;;
12770;SDS011;6449;47.666;9.160;2023-05-10T01:55:39;3.30;;;0.80;;
12770;SDS011;6449;47.666;9.160;2023-05-10T02:00:39;0.60;;;0.60;;
12770;SDS011;6449;47.666;9.160;2023-05-10T02:05:36;1.37;;;0.40;;
12770;SDS011;6449;47.666;9.160;2023-05-10T02:10:34;1.97;;;0.60;;
12770;SDS011;6449;47.666;9.160;2023-05-10T02:15:28;1.07;;;0.73;;
12770;SDS011;6449;47.666;9.160;2023-05-10T02:20:23;2.33;;;0.70;;
12770;SDS011;6449;47.666;9.160;2023-05-10T02:25:19;0.67;;;0.57;;
12770;SDS011;6449;47.666;9.160;2023-05-10T02:30:15;2.20;;;0.50;;
12770;SDS011;6449;47.666;9.160;2023-05-10T02:35:11;1.47;;;0.73;;
12770;SDS011;6449;47.666;9.160;2023-05-10T02:40:06;0.67;;;0.67;;
12770;SDS011;6449;47.666;9.160;2023-05-10T02:45:04;1.43;;;0.60;;
12770;SDS011;6449;47.666;9.160;2023-05-10T02:50:06;1.67;;;0.53;;
12770;SDS011;6449;47.666;9.160;2023-05-10T02:55:00;0.70;;;0.70;;
12770;SDS011;6449;47.666;9.160;2023-05-10T02:59:57;1.17;;;0.83;;
12770;SDS011;6449;47.666;9.160;2023-05-10T03:04:51;1.43;;;0.83;;
12770;SDS011;6449;47.666;9.160;2023-05-10T03:09:46;0.53;;;0.53;;
12770;SDS011;6449;47.666;9.160;2023-05-10T03:14:42;0.80;;;0.80;;
12770;SDS011;6449;47.666;9.160;2023-05-10T03:19:47;0.77;;;0.77;;
12770;SDS011;6449;47.666;9.160;2023-05-10T03:24:47;1.10;;;0.80;;
12770;SDS011;6449;47.666;9.160;2023-05-10T03:29:43;3.47;;;1.30;;
12770;SDS011;6449;47.666;9.160;2023-05-10T03:34:41;1.33;;;1.20;;
12770;SDS011;6449;47.666;9.160;2023-05-10T03:39:36;1.30;;;1.20;;
12770;SDS011;6449;47.666;9.160;2023-05-10T03:44:30;0.80;;;0.80;;
12770;SDS011;6449;47.666;9.160;2023-05-10T03:49:24;0.87;;;0.87;;
12770;SDS011;6449;47.666;9.160;2023-05-10T03:54:18;0.90;;;0.90;;
12770;SDS011;6449;47.666;9.160;2023-05-10T03:59:11;0.97;;;0.83;;
12770;SDS011;6449;47.666;9.160;2023-05-10T04:04:06;2.20;;;0.90;;
12770;SDS011;6449;47.666;9.160;2023-05-10T04:08:59;0.83;;;0.83;;
12770;SDS011;6449;47.666;9.160;2023-05-10T04:13:55;0.80;;;0.80;;
12770;SDS011;6449;47.666;9.160;2023-05-10T04:18:48;1.13;;;0.60;;
12770;SDS011;6449;47.666;9.160;2023-05-10T04:23:43;1.03;;;0.77;;
12770;SDS011;6449;47.666;9.160;2023-05-10T04:28:36;0.90;;;0.90;;
12770;SDS011;6449;47.666;9.160;2023-05-10T04:33:30;0.67;;;0.67;;
12770;SDS011;6449;47.666;9.160;2023-05-10T04:38:24;1.90;;;0.75;;
12770;SDS011;6449;47.666;9.160;2023-05-10T04:43:19;1.07;;;0.60;;
12770;SDS011;6449;47.666;9.160;2023-05-10T04:48:12;0.73;;;0.73;;
12770;SDS011;6449;47.666;9.160;2023-05-10T04:53:06;1.52;;;1.05;;
12770;SDS011;6449;47.666;9.160;2023-05-10T04:57:59;2.47;;;0.88;;
12770;SDS011;6449;47.666;9.160;2023-05-10T05:02:54;1.13;;;1.00;;
12770;SDS011;6449;47.666;9.160;2023-05-10T05:07:47;1.07;;;1.00;;
12770;SDS011;6449;47.666;9.160;2023-05-10T05:12:40;2.67;;;1.00;;
12770;SDS011;6449;47.666;9.160;2023-05-10T05:17:34;1.23;;;0.90;;
12770;SDS011;6449;47.666;9.160;2023-05-10T05:22:29;3.55;;;0.80;;
12770;SDS011;6449;47.666;9.160;2023-05-10T05:27:22;0.80;;;0.80;;
12770;SDS011;6449;47.666;9.160;2023-05-10T05:32:17;2.80;;;1.80;;
12770;SDS011;6449;47.666;9.160;2023-05-10T05:37:12;2.77;;;0.60;;
12770;SDS011;6449;47.666;9.160;2023-05-10T05:42:08;1.00;;;0.73;;
12770;SDS011;6449;47.666;9.160;2023-05-10T05:47:02;2.87;;;0.97;;
12770;SDS011;6449;47.666;9.160;2023-05-10T05:51:58;1.20;;;1.10;;
12770;SDS011;6449;47.666;9.160;2023-05-10T05:56:53;1.67;;;1.20;;
12770;SDS011;6449;47.666;9.160;2023-05-10T06:01:52;1.63;;;0.90;;
12770;SDS011;6449;47.666;9.160;2023-05-10T06:06:45;1.10;;;1.00;;
12770;SDS011;6449;47.666;9.160;2023-05-10T06:11:38;1.43;;;1.00;;
12770;SDS011;6449;47.666;9.160;2023-05-10T06:16:32;0.80;;;0.80;;
12770;SDS011;6449;47.666;9.160;2023-05-10T06:21:26;0.83;;;0.80;;
12770;SDS011;6449;47.666;9.160;2023-05-10T06:26:20;1.10;;;0.80;;
12770;SDS011;6449;47.666;9.160;2023-05-10T06:31:13;0.90;;;0.90;;
12770;SDS011;6449;47.666;9.160;2023-05-10T06:36:07;3.60;;;0.93;;
12770;SDS011;6449;47.666;9.160;2023-05-10T06:41:02;1.80;;;0.83;;
12770;SDS011;6449;47.666;9.160;2023-05-10T06:45:55;1.23;;;0.80;;
12770;SDS011;6449;47.666;9.160;2023-05-10T06:50:49;1.53;;;0.83;;
12770;SDS011;6449;47.666;9.160;2023-05-10T06:55:42;0.87;;;0.87;;
12770;SDS011;6449;47.666;9.160;2023-05-10T07:00:37;2.13;;;0.50;;
12770;SDS011;6449;47.666;9.160;2023-05-10T07:05:32;1.20;;;0.77;;
12770;SDS011;6449;47.666;9.160;2023-05-10T07:10:25;1.60;;;1.20;;
12770;SDS011;6449;47.666;9.160;2023-05-10T07:15:19;1.40;;;0.80;;
12770;SDS011;6449;47.666;9.160;2023-05-10T07:20:14;1.07;;;0.97;;
12770;SDS011;6449;47.666;9.160;2023-05-10T07:25:08;1.57;;;0.70;;
12770;SDS011;6449;47.666;9.160;2023-05-10T07:30:02;0.83;;;0.83;;
12770;SDS011;6449;47.666;9.160;2023-05-10T07:34:56;2.97;;;0.77;;
12770;SDS011;6449;47.666;9.160;2023-05-10T07:39:51;0.67;;;0.63;;
12770;SDS011;6449;47.666;9.160;2023-05-10T07:44:44;0.80;;;0.80;;
12770;SDS011;6449;47.666;9.160;2023-05-10T07:49:38;1.57;;;0.80;;
12770;SDS011;6449;47.666;9.160;2023-05-10T07:54:32;1.27;;;0.90;;
12770;SDS011;6449;47.666;9.160;2023-05-10T07:59:26;2.17;;;0.70;;
12770;SDS011;6449;47.666;9.160;2023-05-10T08:04:20;0.57;;;0.57;;
12770;SDS011;6449;47.666;9.160;2023-05-10T08:09:13;0.60;;;0.53;;
12770;SDS011;6449;47.666;9.160;2023-05-10T08:14:06;0.47;;;0.40;;
12770;SDS011;6449;47.666;9.160;2023-05-10T08:19:01;0.90;;;0.60;;
12770;SDS011;6449;47.666;9.160;2023-05-10T08:23:55;1.17;;;0.70;;
12770;SDS011;6449;47.666;9.160;2023-05-10T08:28:49;1.60;;;0.50;;
12770;SDS011;6449;47.666;9.160;2023-05-10T08:33:42;0.97;;;0.70;;
12770;SDS011;6449;47.666;9.160;2023-05-10T08:43:31;2.73;;;0.90;;
12770;SDS011;6449;47.666;9.160;2023-05-10T08:48:29;1.60;;;0.70;;
12770;SDS011;6449;47.666;9.160;2023-05-10T08:53:24;1.47;;;0.80;;
12770;SDS011;6449;47.666;9.160;2023-05-10T08:58:24;6.40;;;1.00;;
12770;SDS011;6449;47.666;9.160;2023-05-10T09:03:18;1.23;;;0.80;;
12770;SDS011;6449;47.666;9.160;2023-05-10T09:08:12;1.73;;;0.90;;
12770;SDS011;6449;47.666;9.160;2023-05-10T09:13:07;1.70;;;0.80;;
12770;SDS011;6449;47.666;9.160;2023-05-10T09:18:04;1.77;;;0.95;;
12770;SDS011;6449;47.666;9.160;2023-05-10T09:22:58;2.15;;;1.00;;
12770;SDS011;6449;47.666;9.160;2023-05-10T09:27:51;1.73;;;1.27;;
12770;SDS011;6449;47.666;9.160;2023-05-10T09:32:47;4.30;;;1.55;;
12770;SDS011;6449;47.666;9.160;2023-05-10T09:37:45;2.20;;;1.52;;
12770;SDS011;6449;47.666;9.160;2023-05-10T09:42:41;2.63;;;1.08;;
12770;SDS011;6449;47.666;9.160;2023-05-10T09:47:44;1.27;;;1.15;;
12770;SDS011;6449;47.666;9.160;2023-05-10T09:52:46;2.25;;;1.20;;
12770;SDS011;6449;47.666;9.160;2023-05-10T09:57:42;1.42;;;0.90;;
12770;SDS011;6449;47.666;9.160;2023-05-10T10:02:35;4.53;;;1.10;;
12770;SDS011;6449;47.666;9.160;2023-05-10T10:07:29;2.13;;;1.27;;
12770;SDS011;6449;47.666;9.160;2023-05-10T10:12:24;4.43;;;1.38;;
12770;SDS011;6449;47.666;9.160;2023-05-10T10:17:18;1.15;;;0.80;;
12770;SDS011;6449;47.666;9.160;2023-05-10T10:22:13;1.05;;;0.90;;
12770;SDS011;6449;47.666;9.160;2023-05-10T10:27:15;2.40;;;1.08;;
12770;SDS011;6449;47.666;9.160;2023-05-10T10:32:22;3.55;;;1.27;;
12770;SDS011;6449;47.666;9.160;2023-05-10T10:42:44;4.35;;;1.30;;
12770;SDS011;6449;47.666;9.160;2023-05-10T10:47:41;2.70;;;1.20;;
12770;SDS011;6449;47.666;9.160;2023-05-10T10:52:35;2.05;;;1.15;;
12770;SDS011;6449;47.666;9.160;2023-05-10T10:57:42;1.70;;;1.00;;
12770;SDS011;6449;47.666;9.160;2023-05-10T11:02:43;1.35;;;0.93;;
12770;SDS011;6449;47.666;9.160;2023-05-10T11:07:50;1.42;;;0.82;;
12770;SDS011;6449;47.666;9.160;2023-05-10T11:12:52;3.03;;;1.00;;
12770;SDS011;6449;47.666;9.160;2023-05-10T11:17:52;1.65;;;1.05;;
12770;SDS011;6449;47.666;9.160;2023-05-10T11:22:49;2.40;;;1.42;;
12770;SDS011;6449;47.666;9.160;2023-05-10T11:27:43;2.78;;;1.17;;
12770;SDS011;6449;47.666;9.160;2023-05-10T11:32:41;5.13;;;1.50;;
12770;SDS011;6449;47.666;9.160;2023-05-10T11:37:35;2.53;;;1.20;;
12770;SDS011;6449;47.666;9.160;2023-05-10T11:42:30;1.95;;;0.90;;
12770;SDS011;6449;47.666;9.160;2023-05-10T11:47:24;3.70;;;1.38;;
12770;SDS011;6449;47.666;9.160;2023-05-10T11:52:19;3.63;;;1.20;;
12770;SDS011;6449;47.666;9.160;2023-05-10T11:57:12;1.40;;;1.25;;
12770;SDS011;6449;47.666;9.160;2023-05-10T12:02:06;1.65;;;0.90;;
12770;SDS011;6449;47.666;9.160;2023-05-10T12:06:59;2.65;;;1.20;;
12770;SDS011;6449;47.666;9.160;2023-05-10T12:11:56;2.40;;;1.08;;
12770;SDS011;6449;47.666;9.160;2023-05-10T12:16:49;3.70;;;1.20;;
12770;SDS011;6449;47.666;9.160;2023-05-10T12:21:43;3.53;;;0.93;;
12770;SDS011;6449;47.666;9.160;2023-05-10T12:26:37;2.58;;;1.05;;
12770;SDS011;6449;47.666;9.160;2023-05-10T12:31:31;4.82;;;1.08;;
12770;SDS011;6449;47.666;9.160;2023-05-10T12:36:25;2.25;;;0.80;;
12770;SDS011;6449;47.666;9.160;2023-05-10T12:41:19;2.13;;;0.73;;
12770;SDS011;6449;47.666;9.160;2023-05-10T12:46:13;1.83;;;0.85;;
12770;SDS011;6449;47.666;9.160;2023-05-10T12:51:11;2.85;;;0.70;;
12770;SDS011;6449;47.666;9.160;2023-05-10T12:56:07;1.70;;;0.80;;
12770;SDS011;6449;47.666;9.160;2023-05-10T13:01:00;1.35;;;0.75;;
12770;SDS011;6449;47.666;9.160;2023-05-10T13:05:54;3.40;;;0.70;;
12770;SDS011;6449;47.666;9.160;2023-05-10T13:10:49;1.75;;;0.77;;
12770;SDS011;6449;47.666;9.160;2023-05-10T13:15:42;1.52;;;1.00;;
12770;SDS011;6449;47.666;9.160;2023-05-10T13:20:36;0.75;;;0.65;;
12770;SDS011;6449;47.666;9.160;2023-05-10T13:25:29;2.88;;;0.88;;
12770;SDS011;6449;47.666;9.160;2023-05-10T13:30:24;2.28;;;0.77;;
12770;SDS011;6449;47.666;9.160;2023-05-10T13:35:17;3.00;;;0.80;;
12770;SDS011;6449;47.666;9.160;2023-05-10T13:40:11;0.95;;;0.80;;
12770;SDS011;6449;47.666;9.160;2023-05-10T13:45:06;2.85;;;0.90;;
12770;SDS011;6449;47.666;9.160;2023-05-10T13:50:02;0.93;;;0.70;;
12770;SDS011;6449;47.666;9.160;2023-05-10T13:54:56;1.13;;;0.63;;
12770;SDS011;6449;47.666;9.160;2023-05-10T13:59:49;5.47;;;0.65;;
12770;SDS011;6449;47.666;9.160;2023-05-10T14:04:44;2.40;;;0.60;;
12770;SDS011;6449;47.666;9.160;2023-05-10T14:09:39;2.17;;;0.85;;
12770;SDS011;6449;47.666;9.160;2023-05-10T14:14:33;2.30;;;0.60;;
12770;SDS011;6449;47.666;9.160;2023-05-10T14:19:26;1.42;;;0.68;;
12770;SDS011;6449;47.666;9.160;2023-05-10T14:24:21;3.92;;;0.98;;
12770;SDS011;6449;47.666;9.160;2023-05-10T14:29:16;1.23;;;0.80;;
12770;SDS011;6449;47.666;9.160;2023-05-10T14:34:10;1.45;;;0.82;;
12770;SDS011;6449;47.666;9.160;2023-05-10T14:39:03;3.00;;;1.00;;
12770;SDS011;6449;47.666;9.160;2023-05-10T14:43:57;1.73;;;0.65;;
12770;SDS011;6449;47.666;9.160;2023-05-10T14:48:52;2.80;;;0.70;;
12770;SDS011;6449;47.666;9.160;2023-05-10T14:53:45;1.77;;;0.82;;
12770;SDS011;6449;47.666;9.160;2023-05-10T14:58:39;3.05;;;0.73;;
12770;SDS011;6449;47.666;9.160;2023-05-10T15:03:32;1.60;;;0.95;;
12770;SDS011;6449;47.666;9.160;2023-05-10T15:08:27;2.15;;;1.10;;
12770;SDS011;6449;47.666;9.160;2023-05-10T15:13:21;1.52;;;0.77;;
12770;SDS011;6449;47.666;9.160;2023-05-10T15:18:14;0.90;;;0.40;;
12770;SDS011;6449;47.666;9.160;2023-05-10T15:23:08;1.30;;;0.60;;
12770;SDS011;6449;47.666;9.160;2023-05-10T15:28:03;2.13;;;0.80;;
12770;SDS011;6449;47.666;9.160;2023-05-10T15:32:56;3.13;;;1.00;;
12770;SDS011;6449;47.666;9.160;2023-05-10T15:37:50;1.35;;;1.00;;
12770;SDS011;6449;47.666;9.160;2023-05-10T15:42:43;1.98;;;1.20;;
12770;SDS011;6449;47.666;9.160;2023-05-10T15:47:38;1.23;;;1.02;;
12770;SDS011;6449;47.666;9.160;2023-05-10T15:52:31;5.70;;;1.23;;
12770;SDS011;6449;47.666;9.160;2023-05-10T15:57:25;3.72;;;1.40;;
12770;SDS011;6449;47.666;9.160;2023-05-10T16:02:18;2.38;;;1.58;;
12770;SDS011;6449;47.666;9.160;2023-05-10T16:07:15;2.60;;;1.67;;
12770;SDS011;6449;47.666;9.160;2023-05-10T16:12:09;2.42;;;1.50;;
12770;SDS011;6449;47.666;9.160;2023-05-10T16:17:02;1.20;;;1.17;;
12770;SDS011;6449;47.666;9.160;2023-05-10T16:21:56;3.35;;;1.70;;
12770;SDS011;6449;47.666;9.160;2023-05-10T16:26:51;3.38;;;2.25;;
12770;SDS011;6449;47.666;9.160;2023-05-10T16:31:44;2.42;;;1.77;;
12770;SDS011;6449;47.666;9.160;2023-05-10T16:36:37;2.60;;;1.50;;
12770;SDS011;6449;47.666;9.160;2023-05-10T16:41:31;2.15;;;1.30;;
12770;SDS011;6449;47.666;9.160;2023-05-10T16:46:26;5.00;;;1.80;;
12770;SDS011;6449;47.666;9.160;2023-05-10T16:51:20;3.72;;;1.13;;
12770;SDS011;6449;47.666;9.160;2023-05-10T16:56:13;3.38;;;1.48;;
12770;SDS011;6449;47.666;9.160;2023-05-10T17:01:08;4.03;;;2.13;;
12770;SDS011;6449;47.666;9.160;2023-05-10T17:06:02;2.95;;;1.27;;
12770;SDS011;6449;47.666;9.160;2023-05-10T17:10:59;2.15;;;1.42;;
12770;SDS011;6449;47.666;9.160;2023-05-10T17:15:54;2.50;;;1.10;;
12770;SDS011;6449;47.666;9.160;2023-05-10T17:20:48;2.20;;;1.20;;
12770;SDS011;6449;47.666;9.160;2023-05-10T17:25:43;2.42;;;1.30;;
12770;SDS011;6449;47.666;9.160;2023-05-10T17:30:37;1.83;;;1.17;;
12770;SDS011;6449;47.666;9.160;2023-05-10T17:35:30;4.35;;;1.30;;
12770;SDS011;6449;47.666;9.160;2023-05-10T17:40:24;1.30;;;1.10;;
12770;SDS011;6449;47.666;9.160;2023-05-10T17:45:19;2.85;;;1.33;;
12770;SDS011;6449;47.666;9.160;2023-05-10T17:50:12;2.40;;;1.10;;
12770;SDS011;6449;47.666;9.160;2023-05-10T17:55:06;1.55;;;1.00;;
12770;SDS011;6449;47.666;9.160;2023-05-10T18:00:00;1.95;;;0.80;;
12770;SDS011;6449;47.666;9.160;2023-05-10T18:04:57;1.55;;;0.93;;
12770;SDS011;6449;47.666;9.160;2023-05-10T18:09:51;2.33;;;1.13;;
12770;SDS011;6449;47.666;9.160;2023-05-10T18:14:45;2.70;;;1.13;;
12770;SDS011;6449;47.666;9.160;2023-05-10T18:19:38;1.55;;;0.70;;
12770;SDS011;6449;47.666;9.160;2023-05-10T18:24:33;0.57;;;0.57;;
12770;SDS011;6449;47.666;9.160;2023-05-10T18:29:30;1.73;;;1.00;;
12770;SDS011;6449;47.666;9.160;2023-05-10T18:34:24;1.30;;;1.00;;
12770;SDS011;6449;47.666;9.160;2023-05-10T18:39:17;3.80;;;1.07;;
12770;SDS011;6449;47.666;9.160;2023-05-10T18:44:13;2.10;;;1.00;;
12770;SDS011;6449;47.666;9.160;2023-05-10T18:49:17;2.90;;;1.27;;
12770;SDS011;6449;47.666;9.160;2023-05-10T18:54:11;2.90;;;1.10;;
12770;SDS011;6449;47.666;9.160;2023-05-10T18:59:06;1.47;;;1.00;;
12770;SDS011;6449;47.666;9.160;2023-05-10T19:04:00;1.67;;;0.83;;
12770;SDS011;6449;47.666;9.160;2023-05-10T19:08:54;3.03;;;0.90;;
12770;SDS011;6449;47.666;9.160;2023-05-10T19:13:47;1.33;;;0.93;;
12770;SDS011;6449;47.666;9.160;2023-05-10T19:18:40;3.10;;;1.10;;
12770;SDS011;6449;47.666;9.160;2023-05-10T19:23:36;2.58;;;1.60;;
12770;SDS011;6449;47.666;9.160;2023-05-10T19:28:31;1.98;;;1.70;;
12770;SDS011;6449;47.666;9.160;2023-05-10T19:33:26;2.20;;;1.00;;
12770;SDS011;6449;47.666;9.160;2023-05-10T19:38:20;2.40;;;1.40;;
12770;SDS011;6449;47.666;9.160;2023-05-10T19:43:15;1.57;;;1.33;;
12770;SDS011;6449;47.666;9.160;2023-05-10T19:48:10;1.57;;;1.07;;
12770;SDS011;6449;47.666;9.160;2023-05-10T19:53:03;1.30;;;1.20;;
12770;SDS011;6449;47.666;9.160;2023-05-10T19:57:57;1.57;;;1.37;;
12770;SDS011;6449;47.666;9.160;2023-05-10T20:02:53;1.20;;;1.10;;
12770;SDS011;6449;47.666;9.160;2023-05-10T20:07:47;2.27;;;1.27;;
12770;SDS011;6449;47.666;9.160;2023-05-10T20:12:40;1.33;;;0.93;;
12770;SDS011;6449;47.666;9.160;2023-05-10T20:17:39;1.90;;;1.20;;
12770;SDS011;6449;47.666;9.160;2023-05-10T20:22:34;1.60;;;1.50;;
12770;SDS011;6449;47.666;9.160;2023-05-10T20:27:27;2.80;;;1.30;;
12770;SDS011;6449;47.666;9.160;2023-05-10T20:32:21;2.90;;;1.20;;
12770;SDS011;6449;47.666;9.160;2023-05-10T20:37:14;1.60;;;1.37;;
12770;SDS011;6449;47.666;9.160;2023-05-10T20:42:09;1.30;;;1.20;;
12770;SDS011;6449;47.666;9.160;2023-05-10T20:47:03;2.57;;;1.10;;
12770;SDS011;6449;47.666;9.160;2023-05-10T20:51:56;1.30;;;1.00;;
12770;SDS011;6449;47.666;9.160;2023-05-10T20:56:51;2.17;;;1.40;;
12770;SDS011;6449;47.666;9.160;2023-05-10T21:01:45;2.80;;;1.37;;
12770;SDS011;6449;47.666;9.160;2023-05-10T21:06:39;2.20;;;0.80;;
12770;SDS011;6449;47.666;9.160;2023-05-10T21:11:33;2.97;;;1.00;;
12770;SDS011;6449;47.666;9.160;2023-05-10T21:16:26;4.20;;;1.30;;
12770;SDS011;6449;47.666;9.160;2023-05-10T21:21:21;1.37;;;1.10;;
12770;SDS011;6449;47.666;9.160;2023-05-10T21:26:14;2.07;;;1.10;;
12770;SDS011;6449;47.666;9.160;2023-05-10T21:31:08;1.20;;;1.10;;
12770;SDS011;6449;47.666;9.160;2023-05-10T21:36:02;1.10;;;1.00;;
12770;SDS011;6449;47.666;9.160;2023-05-10T21:40:57;1.40;;;1.30;;
12770;SDS011;6449;47.666;9.160;2023-05-10T21:45:51;1.10;;;1.00;;
12770;SDS011;6449;47.666;9.160;2023-05-10T21:50:44;1.87;;;1.20;;
12770;SDS011;6449;47.666;9.160;2023-05-10T21:55:39;1.63;;;1.10;;
12770;SDS011;6449;47.666;9.160;2023-05-10T22:00:33;1.80;;;1.10;;
12770;SDS011;6449;47.666;9.160;2023-05-10T22:05:27;0.90;;;0.90;;
12770;SDS011;6449;47.666;9.160;2023-05-10T22:10:20;1.73;;;1.13;;
12770;SDS011;6449;47.666;9.160;2023-05-10T22:15:13;3.30;;;1.20;;
12770;SDS011;6449;47.666;9.160;2023-05-10T22:20:09;1.20;;;1.10;;
12770;SDS011;6449;47.666;9.160;2023-05-10T22:25:03;1.93;;;1.40;;
12770;SDS011;6449;47.666;9.160;2023-05-10T22:29:58;1.97;;;1.17;;
12770;SDS011;6449;47.666;9.160;2023-05-10T22:34:51;1.40;;;1.30;;
12770;SDS011;6449;47.666;9.160;2023-05-10T22:39:46;4.07;;;1.43;;
12770;SDS011;6449;47.666;9.160;2023-05-10T22:44:41;1.93;;;1.20;;
12770;SDS011;6449;47.666;9.160;2023-05-10T22:49:34;1.63;;;1.27;;
12770;SDS011;6449;47.666;9.160;2023-05-10T22:54:28;1.70;;;1.30;;
12770;SDS011;6449;47.666;9.160;2023-05-10T22:59:22;1.70;;;1.13;;
12770;SDS011;6449;47.666;9.160;2023-05-10T23:04:16;1.10;;;1.10;;
12770;SDS011;6449;47.666;9.160;2023-05-10T23:09:09;1.40;;;0.90;;
12770;SDS011;6449;47.666;9.160;2023-05-10T23:14:02;1.23;;;1.13;;
12770;SDS011;6449;47.666;9.160;2023-05-10T23:18:57;0.97;;;0.80;;
12770;SDS011;6449;47.666;9.160;2023-05-10T23:23:50;2.77;;;1.10;;
12770;SDS011;6449;47.666;9.160;2023-05-10T23:28:45;0.90;;;0.90;;
12770;SDS011;6449;47.666;9.160;2023-05-10T23:33:38;1.83;;;1.10;;
12770;SDS011;6449;47.666;9.160;2023-05-10T23:38:33;2.23;;;1.10;;
12770;SDS011;6449;47.666;9.160;2023-05-10T23:43:26;1.83;;;1.60;;
12770;SDS011;6449;47.666;9.160;2023-05-10T23:48:19;2.97;;;1.23;;
12770;SDS011;6449;47.666;9.160;2023-05-10T23:53:15;1.27;;;1.00;;
12770;SDS011;6449;47.666;9.160;2023-05-10T23:58:09;2.80;;;1.00;;
